sensor_id;sensor_type;location;lat;lon;timestamp;P1;durP1;ratioP1;P2;durP2;ratioP2
60368;SDS011;46208;44.634;10.492;2023-04-06T00:02:04;0.30;;;0.30;;
60368;SDS011;46208;44.634;10.492;2023-04-06T00:05:08;0.57;;;0.40;;
60368;SDS011;46208;44.634;10.492;2023-04-06T00:08:11;0.70;;;0.70;;
60368;SDS011;46208;44.634;10.492;2023-04-06T00:11:14;0.68;;;0.68;;
60368;SDS011;46208;44.634;10.492;2023-04-06T00:14:19;1.17;;;1.17;;
60368;SDS011;46208;44.634;10.492;2023-04-06T00:17:23;1.38;;;1.27;;
60368;SDS011;46208;44.634;10.492;2023-04-06T00:20:26;0.30;;;0.30;;
60368;SDS011;46208;44.634;10.492;2023-04-06T00:23:29;0.50;;;0.50;;
60368;SDS011;46208;44.634;10.492;2023-04-06T00:26:33;0.32;;;0.32;;
60368;SDS011;46208;44.634;10.492;2023-04-06T00:29:37;0.20;;;0.20;;
60368;SDS011;46208;44.634;10.492;2023-04-06T00:32:41;0.20;;;0.20;;
60368;SDS011;46208;44.634;10.492;2023-04-06T00:35:44;1.05;;;0.73;;
60368;SDS011;46208;44.634;10.492;2023-04-06T00:38:47;0.43;;;0.43;;
60368;SDS011;46208;44.634;10.492;2023-04-06T00:41:51;0.30;;;0.30;;
60368;SDS011;46208;44.634;10.492;2023-04-06T00:44:58;0.30;;;0.30;;
60368;SDS011;46208;44.634;10.492;2023-04-06T00:48:02;0.40;;;0.40;;
60368;SDS011;46208;44.634;10.492;2023-04-06T00:51:06;0.50;;;0.50;;
60368;SDS011;46208;44.634;10.492;2023-04-06T00:54:09;0.50;;;0.50;;
60368;SDS011;46208;44.634;10.492;2023-04-06T00:57:13;0.30;;;0.30;;
60368;SDS011;46208;44.634;10.492;2023-04-06T01:00:18;0.35;;;0.35;;
60368;SDS011;46208;44.634;10.492;2023-04-06T01:03:23;0.30;;;0.30;;
60368;SDS011;46208;44.634;10.492;2023-04-06T01:06:27;1.55;;;1.05;;
60368;SDS011;46208;44.634;10.492;2023-04-06T01:09:35;0.20;;;0.20;;
60368;SDS011;46208;44.634;10.492;2023-04-06T01:12:43;0.30;;;0.30;;
60368;SDS011;46208;44.634;10.492;2023-04-06T01:15:55;0.20;;;0.20;;
60368;SDS011;46208;44.634;10.492;2023-04-06T01:19:10;0.25;;;0.25;;
60368;SDS011;46208;44.634;10.492;2023-04-06T01:22:17;0.30;;;0.30;;
60368;SDS011;46208;44.634;10.492;2023-04-06T01:25:27;0.30;;;0.30;;
60368;SDS011;46208;44.634;10.492;2023-04-06T01:28:41;0.55;;;0.55;;
60368;SDS011;46208;44.634;10.492;2023-04-06T01:32:13;0.50;;;0.50;;
60368;SDS011;46208;44.634;10.492;2023-04-06T01:35:26;0.57;;;0.55;;
60368;SDS011;46208;44.634;10.492;2023-04-06T01:38:38;0.38;;;0.38;;
60368;SDS011;46208;44.634;10.492;2023-04-06T01:41:43;0.57;;;0.57;;
60368;SDS011;46208;44.634;10.492;2023-04-06T01:44:46;1.85;;;0.88;;
60368;SDS011;46208;44.634;10.492;2023-04-06T01:47:51;0.35;;;0.35;;
60368;SDS011;46208;44.634;10.492;2023-04-06T01:50:57;0.38;;;0.38;;
60368;SDS011;46208;44.634;10.492;2023-04-06T01:54:06;0.45;;;0.45;;
60368;SDS011;46208;44.634;10.492;2023-04-06T01:57:30;0.30;;;0.30;;
60368;SDS011;46208;44.634;10.492;2023-04-06T02:00:43;0.68;;;0.68;;
60368;SDS011;46208;44.634;10.492;2023-04-06T02:03:47;0.20;;;0.20;;
60368;SDS011;46208;44.634;10.492;2023-04-06T02:06:50;2.58;;;1.33;;
60368;SDS011;46208;44.634;10.492;2023-04-06T02:09:58;0.40;;;0.40;;
60368;SDS011;46208;44.634;10.492;2023-04-06T02:13:10;0.35;;;0.35;;
60368;SDS011;46208;44.634;10.492;2023-04-06T02:16:15;0.38;;;0.38;;
60368;SDS011;46208;44.634;10.492;2023-04-06T02:19:20;0.20;;;0.20;;
60368;SDS011;46208;44.634;10.492;2023-04-06T02:22:25;0.38;;;0.38;;
60368;SDS011;46208;44.634;10.492;2023-04-06T02:25:28;0.40;;;0.40;;
60368;SDS011;46208;44.634;10.492;2023-04-06T02:28:31;0.40;;;0.40;;
60368;SDS011;46208;44.634;10.492;2023-04-06T02:31:38;0.30;;;0.30;;
60368;SDS011;46208;44.634;10.492;2023-04-06T02:34:43;0.38;;;0.30;;
60368;SDS011;46208;44.634;10.492;2023-04-06T02:37:47;1.27;;;1.20;;
60368;SDS011;46208;44.634;10.492;2023-04-06T02:40:50;0.47;;;0.47;;
60368;SDS011;46208;44.634;10.492;2023-04-06T02:44:02;0.43;;;0.43;;
60368;SDS011;46208;44.634;10.492;2023-04-06T02:47:14;0.40;;;0.40;;
60368;SDS011;46208;44.634;10.492;2023-04-06T02:50:23;0.50;;;0.50;;
60368;SDS011;46208;44.634;10.492;2023-04-06T02:53:34;0.75;;;0.75;;
60368;SDS011;46208;44.634;10.492;2023-04-06T02:56:39;0.30;;;0.30;;
60368;SDS011;46208;44.634;10.492;2023-04-06T02:59:43;0.30;;;0.30;;
60368;SDS011;46208;44.634;10.492;2023-04-06T03:02:57;0.30;;;0.30;;
60368;SDS011;46208;44.634;10.492;2023-04-06T03:06:02;0.80;;;0.80;;
60368;SDS011;46208;44.634;10.492;2023-04-06T03:09:07;0.55;;;0.55;;
60368;SDS011;46208;44.634;10.492;2023-04-06T03:12:11;0.25;;;0.25;;
60368;SDS011;46208;44.634;10.492;2023-04-06T03:15:40;0.30;;;0.30;;
60368;SDS011;46208;44.634;10.492;2023-04-06T03:18:50;0.30;;;0.30;;
60368;SDS011;46208;44.634;10.492;2023-04-06T03:21:55;0.30;;;0.30;;
60368;SDS011;46208;44.634;10.492;2023-04-06T03:25:00;0.30;;;0.30;;
60368;SDS011;46208;44.634;10.492;2023-04-06T03:28:04;0.30;;;0.30;;
60368;SDS011;46208;44.634;10.492;2023-04-06T03:31:09;0.68;;;0.50;;
60368;SDS011;46208;44.634;10.492;2023-04-06T03:34:21;0.30;;;0.30;;
60368;SDS011;46208;44.634;10.492;2023-04-06T03:37:24;1.95;;;0.63;;
60368;SDS011;46208;44.634;10.492;2023-04-06T03:40:31;0.63;;;0.63;;
60368;SDS011;46208;44.634;10.492;2023-04-06T03:43:35;0.52;;;0.52;;
60368;SDS011;46208;44.634;10.492;2023-04-06T03:46:39;0.38;;;0.38;;
60368;SDS011;46208;44.634;10.492;2023-04-06T03:49:43;0.50;;;0.50;;
60368;SDS011;46208;44.634;10.492;2023-04-06T03:52:49;0.38;;;0.38;;
60368;SDS011;46208;44.634;10.492;2023-04-06T03:55:52;0.30;;;0.30;;
60368;SDS011;46208;44.634;10.492;2023-04-06T03:58:56;0.85;;;0.85;;
60368;SDS011;46208;44.634;10.492;2023-04-06T04:02:00;0.30;;;0.30;;
60368;SDS011;46208;44.634;10.492;2023-04-06T04:05:03;0.30;;;0.30;;
60368;SDS011;46208;44.634;10.492;2023-04-06T04:08:07;0.40;;;0.40;;
60368;SDS011;46208;44.634;10.492;2023-04-06T04:11:11;0.57;;;0.57;;
60368;SDS011;46208;44.634;10.492;2023-04-06T04:14:15;0.30;;;0.30;;
60368;SDS011;46208;44.634;10.492;2023-04-06T04:17:18;0.40;;;0.40;;
60368;SDS011;46208;44.634;10.492;2023-04-06T04:20:22;0.30;;;0.30;;
60368;SDS011;46208;44.634;10.492;2023-04-06T04:23:26;0.30;;;0.30;;
60368;SDS011;46208;44.634;10.492;2023-04-06T04:26:29;0.30;;;0.30;;
60368;SDS011;46208;44.634;10.492;2023-04-06T04:29:33;0.20;;;0.20;;
60368;SDS011;46208;44.634;10.492;2023-04-06T04:32:40;12.32;;;1.17;;
60368;SDS011;46208;44.634;10.492;2023-04-06T04:35:45;0.45;;;0.45;;
60368;SDS011;46208;44.634;10.492;2023-04-06T04:38:52;0.38;;;0.38;;
60368;SDS011;46208;44.634;10.492;2023-04-06T04:41:56;0.30;;;0.30;;
60368;SDS011;46208;44.634;10.492;2023-04-06T04:45:00;0.38;;;0.38;;
60368;SDS011;46208;44.634;10.492;2023-04-06T04:48:15;0.30;;;0.30;;
60368;SDS011;46208;44.634;10.492;2023-04-06T04:51:27;0.30;;;0.30;;
60368;SDS011;46208;44.634;10.492;2023-04-06T04:54:42;0.30;;;0.30;;
60368;SDS011;46208;44.634;10.492;2023-04-06T04:57:50;0.50;;;0.50;;
60368;SDS011;46208;44.634;10.492;2023-04-06T05:00:58;0.40;;;0.40;;
60368;SDS011;46208;44.634;10.492;2023-04-06T05:04:01;0.40;;;0.40;;
60368;SDS011;46208;44.634;10.492;2023-04-06T05:07:05;0.20;;;0.20;;
60368;SDS011;46208;44.634;10.492;2023-04-06T05:10:11;0.30;;;0.30;;
60368;SDS011;46208;44.634;10.492;2023-04-06T05:13:24;0.25;;;0.25;;
60368;SDS011;46208;44.634;10.492;2023-04-06T05:16:30;0.52;;;0.52;;
60368;SDS011;46208;44.634;10.492;2023-04-06T05:19:33;0.68;;;0.68;;
60368;SDS011;46208;44.634;10.492;2023-04-06T05:22:38;0.45;;;0.45;;
60368;SDS011;46208;44.634;10.492;2023-04-06T05:25:47;0.32;;;0.32;;
60368;SDS011;46208;44.634;10.492;2023-04-06T05:28:55;0.40;;;0.40;;
60368;SDS011;46208;44.634;10.492;2023-04-06T05:31:59;0.20;;;0.20;;
60368;SDS011;46208;44.634;10.492;2023-04-06T05:35:03;0.30;;;0.30;;
60368;SDS011;46208;44.634;10.492;2023-04-06T05:38:07;0.85;;;0.85;;
60368;SDS011;46208;44.634;10.492;2023-04-06T05:41:12;0.30;;;0.30;;
60368;SDS011;46208;44.634;10.492;2023-04-06T05:44:17;0.30;;;0.30;;
60368;SDS011;46208;44.634;10.492;2023-04-06T05:47:26;0.40;;;0.40;;
60368;SDS011;46208;44.634;10.492;2023-04-06T05:50:37;0.40;;;0.40;;
60368;SDS011;46208;44.634;10.492;2023-04-06T05:53:41;1.23;;;0.60;;
60368;SDS011;46208;44.634;10.492;2023-04-06T05:56:45;0.25;;;0.25;;
60368;SDS011;46208;44.634;10.492;2023-04-06T05:59:49;0.45;;;0.45;;
60368;SDS011;46208;44.634;10.492;2023-04-06T06:02:53;0.57;;;0.57;;
60368;SDS011;46208;44.634;10.492;2023-04-06T06:06:01;0.70;;;0.70;;
60368;SDS011;46208;44.634;10.492;2023-04-06T06:09:11;0.20;;;0.20;;
60368;SDS011;46208;44.634;10.492;2023-04-06T06:12:21;0.57;;;0.50;;
60368;SDS011;46208;44.634;10.492;2023-04-06T06:15:26;0.40;;;0.40;;
60368;SDS011;46208;44.634;10.492;2023-04-06T06:18:30;0.30;;;0.30;;
60368;SDS011;46208;44.634;10.492;2023-04-06T06:21:33;1.10;;;0.50;;
60368;SDS011;46208;44.634;10.492;2023-04-06T06:24:37;0.50;;;0.50;;
60368;SDS011;46208;44.634;10.492;2023-04-06T06:27:41;2.55;;;1.48;;
60368;SDS011;46208;44.634;10.492;2023-04-06T06:30:45;0.55;;;0.55;;
60368;SDS011;46208;44.634;10.492;2023-04-06T06:33:51;0.52;;;0.52;;
60368;SDS011;46208;44.634;10.492;2023-04-06T06:36:56;0.43;;;0.43;;
60368;SDS011;46208;44.634;10.492;2023-04-06T06:40:00;1.77;;;1.05;;
60368;SDS011;46208;44.634;10.492;2023-04-06T06:43:03;1.42;;;1.33;;
60368;SDS011;46208;44.634;10.492;2023-04-06T06:46:11;0.40;;;0.40;;
60368;SDS011;46208;44.634;10.492;2023-04-06T06:49:16;2.65;;;0.63;;
60368;SDS011;46208;44.634;10.492;2023-04-06T06:52:20;0.50;;;0.40;;
60368;SDS011;46208;44.634;10.492;2023-04-06T06:55:24;0.25;;;0.25;;
60368;SDS011;46208;44.634;10.492;2023-04-06T06:58:29;1.13;;;0.77;;
60368;SDS011;46208;44.634;10.492;2023-04-06T07:01:33;0.30;;;0.30;;
60368;SDS011;46208;44.634;10.492;2023-04-06T07:04:37;1.20;;;1.15;;
60368;SDS011;46208;44.634;10.492;2023-04-06T07:07:42;0.57;;;0.57;;
60368;SDS011;46208;44.634;10.492;2023-04-06T07:10:45;0.75;;;0.75;;
60368;SDS011;46208;44.634;10.492;2023-04-06T07:13:50;3.03;;;0.70;;
60368;SDS011;46208;44.634;10.492;2023-04-06T07:16:54;0.57;;;0.57;;
60368;SDS011;46208;44.634;10.492;2023-04-06T07:19:58;1.15;;;1.05;;
60368;SDS011;46208;44.634;10.492;2023-04-06T07:23:01;0.30;;;0.30;;
60368;SDS011;46208;44.634;10.492;2023-04-06T07:26:06;1.58;;;1.02;;
60368;SDS011;46208;44.634;10.492;2023-04-06T07:29:10;0.40;;;0.40;;
60368;SDS011;46208;44.634;10.492;2023-04-06T07:32:13;0.55;;;0.47;;
60368;SDS011;46208;44.634;10.492;2023-04-06T07:35:17;0.47;;;0.47;;
60368;SDS011;46208;44.634;10.492;2023-04-06T07:38:21;0.75;;;0.40;;
60368;SDS011;46208;44.634;10.492;2023-04-06T07:41:24;0.77;;;0.77;;
60368;SDS011;46208;44.634;10.492;2023-04-06T07:44:28;1.70;;;0.90;;
60368;SDS011;46208;44.634;10.492;2023-04-06T07:47:33;2.38;;;0.95;;
60368;SDS011;46208;44.634;10.492;2023-04-06T07:50:37;0.60;;;0.60;;
60368;SDS011;46208;44.634;10.492;2023-04-06T07:53:41;1.83;;;0.60;;
60368;SDS011;46208;44.634;10.492;2023-04-06T07:56:45;0.63;;;0.55;;
60368;SDS011;46208;44.634;10.492;2023-04-06T07:59:48;1.23;;;1.13;;
60368;SDS011;46208;44.634;10.492;2023-04-06T08:02:51;1.13;;;1.02;;
60368;SDS011;46208;44.634;10.492;2023-04-06T08:05:55;0.80;;;0.80;;
60368;SDS011;46208;44.634;10.492;2023-04-06T08:08:58;0.82;;;0.82;;
60368;SDS011;46208;44.634;10.492;2023-04-06T08:12:01;0.90;;;0.90;;
60368;SDS011;46208;44.634;10.492;2023-04-06T08:15:05;0.60;;;0.60;;
60368;SDS011;46208;44.634;10.492;2023-04-06T08:18:08;2.08;;;0.85;;
60368;SDS011;46208;44.634;10.492;2023-04-06T08:21:12;1.77;;;0.82;;
60368;SDS011;46208;44.634;10.492;2023-04-06T08:24:15;1.20;;;1.10;;
60368;SDS011;46208;44.634;10.492;2023-04-06T08:27:18;2.50;;;1.95;;
60368;SDS011;46208;44.634;10.492;2023-04-06T08:30:21;1.52;;;1.42;;
60368;SDS011;46208;44.634;10.492;2023-04-06T08:33:24;3.75;;;1.40;;
60368;SDS011;46208;44.634;10.492;2023-04-06T08:36:28;0.82;;;0.82;;
60368;SDS011;46208;44.634;10.492;2023-04-06T08:39:32;1.10;;;0.90;;
60368;SDS011;46208;44.634;10.492;2023-04-06T08:42:39;0.90;;;0.90;;
60368;SDS011;46208;44.634;10.492;2023-04-06T08:45:42;1.20;;;0.70;;
60368;SDS011;46208;44.634;10.492;2023-04-06T08:48:46;0.80;;;0.77;;
60368;SDS011;46208;44.634;10.492;2023-04-06T08:51:53;1.17;;;1.08;;
60368;SDS011;46208;44.634;10.492;2023-04-06T08:54:58;1.42;;;1.33;;
60368;SDS011;46208;44.634;10.492;2023-04-06T08:58:01;0.98;;;0.88;;
60368;SDS011;46208;44.634;10.492;2023-04-06T09:01:08;1.70;;;1.45;;
60368;SDS011;46208;44.634;10.492;2023-04-06T09:04:14;1.92;;;1.30;;
60368;SDS011;46208;44.634;10.492;2023-04-06T09:07:18;2.08;;;1.40;;
60368;SDS011;46208;44.634;10.492;2023-04-06T09:10:21;1.80;;;1.67;;
60368;SDS011;46208;44.634;10.492;2023-04-06T09:13:27;4.47;;;1.70;;
60368;SDS011;46208;44.634;10.492;2023-04-06T09:16:38;1.60;;;1.45;;
60368;SDS011;46208;44.634;10.492;2023-04-06T09:19:45;0.98;;;0.85;;
60368;SDS011;46208;44.634;10.492;2023-04-06T09:22:48;2.35;;;1.45;;
60368;SDS011;46208;44.634;10.492;2023-04-06T09:26:03;1.27;;;1.17;;
60368;SDS011;46208;44.634;10.492;2023-04-06T09:29:06;2.35;;;1.55;;
60368;SDS011;46208;44.634;10.492;2023-04-06T09:32:10;1.98;;;1.58;;
60368;SDS011;46208;44.634;10.492;2023-04-06T09:35:14;1.65;;;1.30;;
60368;SDS011;46208;44.634;10.492;2023-04-06T09:38:18;1.48;;;1.38;;
60368;SDS011;46208;44.634;10.492;2023-04-06T09:41:28;3.05;;;1.58;;
60368;SDS011;46208;44.634;10.492;2023-04-06T09:44:31;1.30;;;1.20;;
60368;SDS011;46208;44.634;10.492;2023-04-06T09:47:35;2.67;;;1.17;;
60368;SDS011;46208;44.634;10.492;2023-04-06T09:50:39;1.42;;;1.33;;
60368;SDS011;46208;44.634;10.492;2023-04-06T09:53:43;2.03;;;1.27;;
60368;SDS011;46208;44.634;10.492;2023-04-06T10:00:11;1.48;;;1.15;;
60368;SDS011;46208;44.634;10.492;2023-04-06T10:03:23;1.85;;;1.27;;
60368;SDS011;46208;44.634;10.492;2023-04-06T10:06:31;4.88;;;2.15;;
60368;SDS011;46208;44.634;10.492;2023-04-06T10:09:37;1.63;;;1.50;;
60368;SDS011;46208;44.634;10.492;2023-04-06T10:12:40;2.15;;;1.20;;
60368;SDS011;46208;44.634;10.492;2023-04-06T10:15:45;3.33;;;1.92;;
60368;SDS011;46208;44.634;10.492;2023-04-06T10:18:50;3.28;;;2.33;;
60368;SDS011;46208;44.634;10.492;2023-04-06T10:21:55;1.98;;;1.58;;
60368;SDS011;46208;44.634;10.492;2023-04-06T10:24:59;2.65;;;1.48;;
60368;SDS011;46208;44.634;10.492;2023-04-06T10:28:06;1.30;;;1.20;;
60368;SDS011;46208;44.634;10.492;2023-04-06T10:31:09;1.50;;;1.40;;
60368;SDS011;46208;44.634;10.492;2023-04-06T10:34:13;3.60;;;1.95;;
60368;SDS011;46208;44.634;10.492;2023-04-06T10:37:17;2.03;;;1.63;;
60368;SDS011;46208;44.634;10.492;2023-04-06T10:40:25;1.83;;;1.67;;
60368;SDS011;46208;44.634;10.492;2023-04-06T10:43:32;5.78;;;2.40;;
60368;SDS011;46208;44.634;10.492;2023-04-06T10:46:35;2.47;;;1.25;;
60368;SDS011;46208;44.634;10.492;2023-04-06T10:49:39;1.40;;;1.33;;
60368;SDS011;46208;44.634;10.492;2023-04-06T10:52:46;2.63;;;1.90;;
60368;SDS011;46208;44.634;10.492;2023-04-06T10:55:50;6.25;;;1.95;;
60368;SDS011;46208;44.634;10.492;2023-04-06T10:58:54;1.58;;;1.30;;
60368;SDS011;46208;44.634;10.492;2023-04-06T11:02:01;2.22;;;1.80;;
60368;SDS011;46208;44.634;10.492;2023-04-06T11:05:04;2.40;;;1.70;;
60368;SDS011;46208;44.634;10.492;2023-04-06T11:08:07;3.05;;;1.42;;
60368;SDS011;46208;44.634;10.492;2023-04-06T11:11:11;1.50;;;1.20;;
60368;SDS011;46208;44.634;10.492;2023-04-06T11:14:18;3.08;;;1.80;;
60368;SDS011;46208;44.634;10.492;2023-04-06T11:17:28;1.45;;;1.35;;
60368;SDS011;46208;44.634;10.492;2023-04-06T11:20:31;2.72;;;1.67;;
60368;SDS011;46208;44.634;10.492;2023-04-06T11:23:34;2.10;;;1.90;;
60368;SDS011;46208;44.634;10.492;2023-04-06T11:29:42;2.53;;;2.05;;
60368;SDS011;46208;44.634;10.492;2023-04-06T11:32:45;2.38;;;1.92;;
60368;SDS011;46208;44.634;10.492;2023-04-06T11:35:48;2.28;;;1.45;;
60368;SDS011;46208;44.634;10.492;2023-04-06T11:38:52;3.33;;;1.77;;
60368;SDS011;46208;44.634;10.492;2023-04-06T11:41:59;3.90;;;1.95;;
60368;SDS011;46208;44.634;10.492;2023-04-06T11:48:06;2.85;;;1.50;;
60368;SDS011;46208;44.634;10.492;2023-04-06T11:51:23;4.35;;;2.38;;
60368;SDS011;46208;44.634;10.492;2023-04-06T11:54:37;2.05;;;1.85;;
60368;SDS011;46208;44.634;10.492;2023-04-06T11:57:41;2.10;;;1.67;;
60368;SDS011;46208;44.634;10.492;2023-04-06T12:00:45;2.85;;;1.65;;
60368;SDS011;46208;44.634;10.492;2023-04-06T12:03:49;2.58;;;1.75;;
60368;SDS011;46208;44.634;10.492;2023-04-06T12:06:52;3.53;;;2.00;;
60368;SDS011;46208;44.634;10.492;2023-04-06T12:09:56;3.88;;;2.60;;
60368;SDS011;46208;44.634;10.492;2023-04-06T12:12:59;3.60;;;2.63;;
60368;SDS011;46208;44.634;10.492;2023-04-06T12:16:03;3.40;;;1.98;;
60368;SDS011;46208;44.634;10.492;2023-04-06T12:19:07;2.83;;;2.00;;
60368;SDS011;46208;44.634;10.492;2023-04-06T12:22:10;2.78;;;2.15;;
60368;SDS011;46208;44.634;10.492;2023-04-06T12:25:13;3.85;;;2.40;;
60368;SDS011;46208;44.634;10.492;2023-04-06T12:28:17;4.03;;;2.25;;
60368;SDS011;46208;44.634;10.492;2023-04-06T12:31:21;2.63;;;2.05;;
60368;SDS011;46208;44.634;10.492;2023-04-06T12:34:25;1.85;;;1.65;;
60368;SDS011;46208;44.634;10.492;2023-04-06T12:37:28;2.55;;;1.80;;
60368;SDS011;46208;44.634;10.492;2023-04-06T12:40:35;2.72;;;1.95;;
60368;SDS011;46208;44.634;10.492;2023-04-06T12:43:39;3.45;;;2.45;;
60368;SDS011;46208;44.634;10.492;2023-04-06T12:46:42;3.80;;;1.85;;
60368;SDS011;46208;44.634;10.492;2023-04-06T12:49:46;2.38;;;2.17;;
60368;SDS011;46208;44.634;10.492;2023-04-06T12:52:49;4.03;;;2.30;;
60368;SDS011;46208;44.634;10.492;2023-04-06T12:55:53;4.10;;;2.38;;
60368;SDS011;46208;44.634;10.492;2023-04-06T12:58:57;3.53;;;2.22;;
60368;SDS011;46208;44.634;10.492;2023-04-06T13:02:00;3.58;;;1.80;;
60368;SDS011;46208;44.634;10.492;2023-04-06T13:05:03;3.72;;;2.85;;
60368;SDS011;46208;44.634;10.492;2023-04-06T13:08:06;4.75;;;2.53;;
60368;SDS011;46208;44.634;10.492;2023-04-06T13:11:10;7.60;;;2.53;;
60368;SDS011;46208;44.634;10.492;2023-04-06T13:14:14;4.00;;;2.42;;
60368;SDS011;46208;44.634;10.492;2023-04-06T13:17:17;3.22;;;2.25;;
60368;SDS011;46208;44.634;10.492;2023-04-06T13:20:20;4.47;;;2.72;;
60368;SDS011;46208;44.634;10.492;2023-04-06T13:23:24;4.53;;;2.70;;
60368;SDS011;46208;44.634;10.492;2023-04-06T13:26:28;3.42;;;2.22;;
60368;SDS011;46208;44.634;10.492;2023-04-06T13:29:31;3.83;;;2.42;;
60368;SDS011;46208;44.634;10.492;2023-04-06T13:32:35;2.80;;;2.40;;
60368;SDS011;46208;44.634;10.492;2023-04-06T13:35:39;5.72;;;2.75;;
60368;SDS011;46208;44.634;10.492;2023-04-06T13:38:42;2.80;;;2.38;;
60368;SDS011;46208;44.634;10.492;2023-04-06T13:41:45;5.05;;;2.78;;
60368;SDS011;46208;44.634;10.492;2023-04-06T13:44:49;2.75;;;2.28;;
60368;SDS011;46208;44.634;10.492;2023-04-06T13:47:54;3.08;;;2.17;;
60368;SDS011;46208;44.634;10.492;2023-04-06T13:50:57;4.53;;;2.33;;
60368;SDS011;46208;44.634;10.492;2023-04-06T13:54:00;3.33;;;2.47;;
60368;SDS011;46208;44.634;10.492;2023-04-06T13:57:03;4.43;;;2.63;;
60368;SDS011;46208;44.634;10.492;2023-04-06T14:00:08;4.30;;;3.03;;
60368;SDS011;46208;44.634;10.492;2023-04-06T14:03:12;4.30;;;2.90;;
60368;SDS011;46208;44.634;10.492;2023-04-06T14:06:15;5.30;;;2.05;;
60368;SDS011;46208;44.634;10.492;2023-04-06T14:09:18;4.75;;;2.42;;
60368;SDS011;46208;44.634;10.492;2023-04-06T14:12:21;3.20;;;2.40;;
60368;SDS011;46208;44.634;10.492;2023-04-06T14:15:25;5.13;;;2.63;;
60368;SDS011;46208;44.634;10.492;2023-04-06T14:18:28;3.63;;;2.65;;
60368;SDS011;46208;44.634;10.492;2023-04-06T14:21:34;2.70;;;2.17;;
60368;SDS011;46208;44.634;10.492;2023-04-06T14:24:37;3.63;;;2.97;;
60368;SDS011;46208;44.634;10.492;2023-04-06T14:27:41;2.47;;;2.13;;
60368;SDS011;46208;44.634;10.492;2023-04-06T14:30:45;4.70;;;2.50;;
60368;SDS011;46208;44.634;10.492;2023-04-06T14:33:48;7.03;;;2.70;;
60368;SDS011;46208;44.634;10.492;2023-04-06T14:36:51;3.35;;;2.30;;
60368;SDS011;46208;44.634;10.492;2023-04-06T14:39:55;2.40;;;2.10;;
60368;SDS011;46208;44.634;10.492;2023-04-06T14:42:58;3.67;;;2.55;;
60368;SDS011;46208;44.634;10.492;2023-04-06T14:46:01;4.35;;;2.40;;
60368;SDS011;46208;44.634;10.492;2023-04-06T14:49:05;4.85;;;2.55;;
60368;SDS011;46208;44.634;10.492;2023-04-06T14:52:07;2.85;;;2.03;;
60368;SDS011;46208;44.634;10.492;2023-04-06T14:55:11;2.90;;;2.17;;
60368;SDS011;46208;44.634;10.492;2023-04-06T14:58:14;4.68;;;2.50;;
60368;SDS011;46208;44.634;10.492;2023-04-06T15:01:18;3.10;;;2.40;;
60368;SDS011;46208;44.634;10.492;2023-04-06T15:04:21;4.68;;;2.60;;
60368;SDS011;46208;44.634;10.492;2023-04-06T15:07:24;3.95;;;2.35;;
60368;SDS011;46208;44.634;10.492;2023-04-06T15:10:30;2.28;;;2.08;;
60368;SDS011;46208;44.634;10.492;2023-04-06T15:13:33;3.45;;;2.08;;
60368;SDS011;46208;44.634;10.492;2023-04-06T15:16:37;4.13;;;2.72;;
60368;SDS011;46208;44.634;10.492;2023-04-06T15:19:40;3.85;;;2.03;;
60368;SDS011;46208;44.634;10.492;2023-04-06T15:22:44;3.13;;;2.13;;
60368;SDS011;46208;44.634;10.492;2023-04-06T15:25:47;4.60;;;2.58;;
60368;SDS011;46208;44.634;10.492;2023-04-06T15:28:51;3.25;;;2.03;;
60368;SDS011;46208;44.634;10.492;2023-04-06T15:31:54;8.13;;;2.33;;
60368;SDS011;46208;44.634;10.492;2023-04-06T15:34:58;2.40;;;1.98;;
60368;SDS011;46208;44.634;10.492;2023-04-06T15:38:02;7.07;;;2.67;;
60368;SDS011;46208;44.634;10.492;2023-04-06T15:41:05;2.83;;;2.22;;
60368;SDS011;46208;44.634;10.492;2023-04-06T15:44:09;3.03;;;2.42;;
60368;SDS011;46208;44.634;10.492;2023-04-06T15:47:13;3.10;;;2.25;;
60368;SDS011;46208;44.634;10.492;2023-04-06T15:50:16;2.55;;;1.92;;
60368;SDS011;46208;44.634;10.492;2023-04-06T15:53:22;4.10;;;2.13;;
60368;SDS011;46208;44.634;10.492;2023-04-06T15:56:25;4.18;;;2.50;;
60368;SDS011;46208;44.634;10.492;2023-04-06T15:59:28;2.65;;;2.15;;
60368;SDS011;46208;44.634;10.492;2023-04-06T16:02:31;2.95;;;2.67;;
60368;SDS011;46208;44.634;10.492;2023-04-06T16:05:35;4.53;;;2.22;;
60368;SDS011;46208;44.634;10.492;2023-04-06T16:08:39;2.22;;;1.52;;
60368;SDS011;46208;44.634;10.492;2023-04-06T16:11:42;3.03;;;1.98;;
60368;SDS011;46208;44.634;10.492;2023-04-06T16:14:46;3.20;;;2.53;;
60368;SDS011;46208;44.634;10.492;2023-04-06T16:17:49;5.57;;;2.95;;
60368;SDS011;46208;44.634;10.492;2023-04-06T16:20:53;6.03;;;2.28;;
60368;SDS011;46208;44.634;10.492;2023-04-06T16:23:57;3.15;;;2.60;;
60368;SDS011;46208;44.634;10.492;2023-04-06T16:27:00;3.63;;;2.40;;
60368;SDS011;46208;44.634;10.492;2023-04-06T16:30:03;5.65;;;2.67;;
60368;SDS011;46208;44.634;10.492;2023-04-06T16:33:07;4.13;;;1.98;;
60368;SDS011;46208;44.634;10.492;2023-04-06T16:36:11;3.40;;;2.33;;
60368;SDS011;46208;44.634;10.492;2023-04-06T16:39:14;2.42;;;1.58;;
60368;SDS011;46208;44.634;10.492;2023-04-06T16:42:19;5.43;;;2.45;;
60368;SDS011;46208;44.634;10.492;2023-04-06T16:45:22;2.10;;;1.65;;
60368;SDS011;46208;44.634;10.492;2023-04-06T16:48:25;2.20;;;1.98;;
60368;SDS011;46208;44.634;10.492;2023-04-06T16:51:29;5.18;;;2.97;;
60368;SDS011;46208;44.634;10.492;2023-04-06T16:54:34;6.07;;;2.70;;
60368;SDS011;46208;44.634;10.492;2023-04-06T16:57:38;5.18;;;2.63;;
60368;SDS011;46208;44.634;10.492;2023-04-06T17:00:41;2.72;;;1.70;;
60368;SDS011;46208;44.634;10.492;2023-04-06T17:03:44;2.22;;;1.48;;
60368;SDS011;46208;44.634;10.492;2023-04-06T17:06:49;6.15;;;2.58;;
60368;SDS011;46208;44.634;10.492;2023-04-06T17:09:52;4.80;;;2.60;;
60368;SDS011;46208;44.634;10.492;2023-04-06T17:12:55;5.07;;;2.72;;
60368;SDS011;46208;44.634;10.492;2023-04-06T17:15:59;5.78;;;2.20;;
60368;SDS011;46208;44.634;10.492;2023-04-06T17:19:03;5.43;;;2.53;;
60368;SDS011;46208;44.634;10.492;2023-04-06T17:22:06;1.95;;;1.75;;
60368;SDS011;46208;44.634;10.492;2023-04-06T17:25:09;2.40;;;2.15;;
60368;SDS011;46208;44.634;10.492;2023-04-06T17:28:12;2.75;;;1.85;;
60368;SDS011;46208;44.634;10.492;2023-04-06T17:31:16;1.95;;;1.38;;
60368;SDS011;46208;44.634;10.492;2023-04-06T17:34:19;2.00;;;1.15;;
60368;SDS011;46208;44.634;10.492;2023-04-06T17:37:23;3.90;;;2.47;;
60368;SDS011;46208;44.634;10.492;2023-04-06T17:40:27;3.65;;;1.70;;
60368;SDS011;46208;44.634;10.492;2023-04-06T17:43:31;1.48;;;1.15;;
60368;SDS011;46208;44.634;10.492;2023-04-06T17:46:35;3.30;;;1.70;;
60368;SDS011;46208;44.634;10.492;2023-04-06T17:49:38;3.35;;;1.73;;
60368;SDS011;46208;44.634;10.492;2023-04-06T17:52:41;1.50;;;1.15;;
60368;SDS011;46208;44.634;10.492;2023-04-06T17:55:45;3.33;;;1.48;;
60368;SDS011;46208;44.634;10.492;2023-04-06T17:58:48;3.95;;;2.17;;
60368;SDS011;46208;44.634;10.492;2023-04-06T18:01:52;2.50;;;2.28;;
60368;SDS011;46208;44.634;10.492;2023-04-06T18:04:56;3.13;;;1.50;;
60368;SDS011;46208;44.634;10.492;2023-04-06T18:07:59;4.57;;;1.77;;
60368;SDS011;46208;44.634;10.492;2023-04-06T18:11:03;1.92;;;1.70;;
60368;SDS011;46208;44.634;10.492;2023-04-06T18:14:06;1.27;;;1.17;;
60368;SDS011;46208;44.634;10.492;2023-04-06T18:17:11;2.13;;;1.70;;
60368;SDS011;46208;44.634;10.492;2023-04-06T18:20:14;3.00;;;2.15;;
60368;SDS011;46208;44.634;10.492;2023-04-06T18:23:19;6.97;;;2.70;;
60368;SDS011;46208;44.634;10.492;2023-04-06T18:26:22;13.20;;;5.75;;